createdAt,value
2023-11-13T00:01:22.429Z,15.78
2023-11-13T00:03:49.738Z,15.88
2023-11-13T00:06:16.409Z,15.72
2023-11-13T00:08:43.865Z,15.69
2023-11-13T00:11:10.719Z,15.94
2023-11-13T00:13:37.739Z,15.97
2023-11-13T00:16:04.950Z,16.05
2023-11-13T00:18:33.038Z,15.94
2023-11-13T00:21:00.242Z,15.95
2023-11-13T00:23:28.513Z,15.87
2023-11-13T00:25:55.245Z,16.07
2023-11-13T00:28:22.040Z,16.01
2023-11-13T00:30:48.822Z,16.00
2023-11-13T00:33:17.301Z,16.07
2023-11-13T00:35:45.509Z,16.07
2023-11-13T00:38:12.138Z,16.24
2023-11-13T00:40:38.719Z,16.18
2023-11-13T00:43:06.085Z,16.18
2023-11-13T00:45:33.136Z,16.15
2023-11-13T00:47:59.764Z,16.24
2023-11-13T00:50:26.383Z,16.18
2023-11-13T00:52:52.930Z,16.24
2023-11-13T00:55:19.537Z,16.21
2023-11-13T00:57:46.484Z,16.33
2023-11-13T01:00:14.581Z,16.51
2023-11-13T01:02:41.194Z,16.43
2023-11-13T01:05:08.288Z,16.41
2023-11-13T01:07:35.189Z,16.46
2023-11-13T01:10:01.859Z,16.46
2023-11-13T01:12:28.447Z,16.54
2023-11-13T01:14:54.992Z,16.62
2023-11-13T01:17:21.532Z,16.65
2023-11-13T01:19:48.050Z,16.60
2023-11-13T01:22:14.694Z,16.72
2023-11-13T01:24:41.307Z,16.69
2023-11-13T01:27:07.845Z,16.63
2023-11-13T01:29:34.419Z,16.70
2023-11-13T01:32:01.971Z,16.68
2023-11-13T01:34:28.680Z,16.72
2023-11-13T01:36:55.339Z,16.63
2023-11-13T01:39:21.923Z,16.56
2023-11-13T01:41:48.777Z,16.56
2023-11-13T01:44:15.309Z,16.81
2023-11-13T01:46:43.920Z,16.72
2023-11-13T01:49:11.011Z,16.67
2023-11-13T01:51:37.762Z,16.54
2023-11-13T01:54:05.341Z,16.61
2023-11-13T01:56:32.924Z,16.64
2023-11-13T01:59:00.132Z,16.55
2023-11-13T02:01:29.235Z,16.48
2023-11-13T02:03:55.911Z,16.58
2023-11-13T02:06:25.608Z,16.71
2023-11-13T02:08:52.092Z,16.63
2023-11-13T02:11:19.720Z,16.72
2023-11-13T02:13:47.612Z,16.67
2023-11-13T02:16:14.294Z,16.65
2023-11-13T02:18:41.387Z,16.74
2023-11-13T02:21:08.365Z,16.70
2023-11-13T02:23:35.291Z,16.72
2023-11-13T02:26:11.143Z,16.75
2023-11-13T02:28:37.603Z,16.78
2023-11-13T02:31:04.527Z,16.83
2023-11-13T02:33:31.160Z,16.77
2023-11-13T02:35:57.635Z,16.58
2023-11-13T02:38:24.165Z,16.83
2023-11-13T02:40:50.755Z,16.61
2023-11-13T02:43:17.537Z,16.71
2023-11-13T02:45:44.426Z,16.81
2023-11-13T02:48:11.225Z,16.83
2023-11-13T02:50:37.756Z,16.82
2023-11-13T02:53:04.350Z,16.65
2023-11-13T02:55:30.881Z,16.79
2023-11-13T02:57:57.448Z,16.81
2023-11-13T03:00:24.317Z,16.66
2023-11-13T03:02:52.263Z,16.62
2023-11-13T03:05:19.044Z,16.61
2023-11-13T03:07:45.596Z,16.56
2023-11-13T03:10:12.382Z,16.60
2023-11-13T03:12:43.246Z,16.56
2023-11-13T03:15:12.640Z,16.55
2023-11-13T03:17:39.315Z,16.57
2023-11-13T03:20:07.904Z,16.56
2023-11-13T03:22:35.294Z,16.50
2023-11-13T03:25:02.016Z,16.52
2023-11-13T03:27:28.683Z,16.52
2023-11-13T03:29:55.225Z,16.46
2023-11-13T03:32:21.892Z,16.38
2023-11-13T03:34:48.498Z,16.35
2023-11-13T03:37:15.134Z,16.30
2023-11-13T03:39:41.722Z,16.23
2023-11-13T03:42:10.344Z,16.05
2023-11-13T03:44:36.975Z,16.08
2023-11-13T03:47:03.710Z,16.15
2023-11-13T03:49:30.245Z,15.97
2023-11-13T03:51:56.852Z,15.80
2023-11-13T03:54:24.471Z,15.85
2023-11-13T03:56:51.016Z,15.85
2023-11-13T03:59:17.594Z,15.87
2023-11-13T04:01:48.581Z,15.72
2023-11-13T04:04:15.324Z,15.69
2023-11-13T04:06:41.868Z,15.63
2023-11-13T04:09:08.560Z,15.51
2023-11-13T04:11:35.149Z,15.70
2023-11-13T04:14:01.702Z,15.81
2023-11-13T04:16:28.385Z,15.84
2023-11-13T04:18:55.233Z,15.82
2023-11-13T04:21:21.815Z,15.61
2023-11-13T04:23:48.926Z,15.45
2023-11-13T04:26:15.518Z,15.50
2023-11-13T04:28:42.259Z,15.39
2023-11-13T04:31:09.467Z,15.33
2023-11-13T04:33:36.719Z,15.62
2023-11-13T04:36:04.182Z,15.70
2023-11-13T04:38:31.292Z,15.68
2023-11-13T04:40:58.790Z,15.70
2023-11-13T04:43:27.180Z,15.49
2023-11-13T04:45:54.296Z,15.52
2023-11-13T04:48:21.699Z,15.61
2023-11-13T04:50:49.128Z,15.50
2023-11-13T04:53:15.670Z,15.55
2023-11-13T04:55:42.887Z,15.63
2023-11-13T04:58:09.612Z,15.72
2023-11-13T05:00:36.152Z,15.86
2023-11-13T05:03:02.794Z,15.81
2023-11-13T05:05:31.182Z,15.85
2023-11-13T05:07:57.856Z,15.85
2023-11-13T05:10:24.458Z,15.76
2023-11-13T05:12:51.223Z,15.82
2023-11-13T05:15:17.774Z,15.81
2023-11-13T05:17:44.502Z,15.84
2023-11-13T05:20:11.460Z,15.79
2023-11-13T05:22:38.058Z,15.71
2023-11-13T05:25:05.105Z,15.61
2023-11-13T05:27:31.899Z,15.61
2023-11-13T05:29:58.541Z,15.63
2023-11-13T05:32:25.551Z,15.62
2023-11-13T05:34:53.261Z,15.71
2023-11-13T05:37:19.883Z,15.64
2023-11-13T05:39:46.451Z,15.70
2023-11-13T05:42:13.068Z,15.67
2023-11-13T05:44:39.606Z,15.66
2023-11-13T05:47:06.606Z,15.71
2023-11-13T05:49:33.399Z,15.55
2023-11-13T05:52:00.032Z,15.47
2023-11-13T05:54:26.507Z,15.49
2023-11-13T05:56:53.072Z,15.47
2023-11-13T05:59:19.534Z,15.49
2023-11-13T06:01:46.316Z,15.54
2023-11-13T06:04:12.894Z,15.46
2023-11-13T06:06:39.487Z,15.56
2023-11-13T06:09:06.100Z,15.48
2023-11-13T06:11:32.699Z,15.42
2023-11-13T06:13:59.183Z,15.39
2023-11-13T06:16:25.737Z,15.58
2023-11-13T06:18:54.260Z,15.67
2023-11-13T06:21:21.254Z,15.62
2023-11-13T06:23:47.746Z,15.66
2023-11-13T06:26:14.327Z,15.71
2023-11-13T06:28:41.677Z,15.72
2023-11-13T06:31:12.815Z,15.61
2023-11-13T06:33:39.807Z,15.67
2023-11-13T06:36:10.760Z,15.65
2023-11-13T06:38:38.116Z,15.68
2023-11-13T06:41:05.686Z,15.77
2023-11-13T06:43:34.023Z,15.80
2023-11-13T06:46:01.700Z,15.92
2023-11-13T06:48:28.286Z,15.83
2023-11-13T06:50:55.070Z,15.81
2023-11-13T06:53:21.780Z,15.77
2023-11-13T06:55:49.209Z,15.71
2023-11-13T06:58:16.159Z,15.50
2023-11-13T07:00:42.725Z,15.74
2023-11-13T07:03:11.820Z,15.71
2023-11-13T07:05:39.158Z,15.77
2023-11-13T07:08:05.868Z,15.61
2023-11-13T07:10:34.746Z,15.64
2023-11-13T07:13:01.419Z,15.59
2023-11-13T07:15:28.026Z,15.67
2023-11-13T07:17:54.645Z,15.73
2023-11-13T07:20:21.195Z,15.85
2023-11-13T07:22:51.517Z,15.74
2023-11-13T07:25:18.328Z,15.77
2023-11-13T07:27:44.896Z,15.93
2023-11-13T07:30:11.771Z,16.01
2023-11-13T07:32:38.592Z,16.18
2023-11-13T07:35:05.825Z,16.17
2023-11-13T07:37:32.785Z,16.37
2023-11-13T07:40:00.581Z,16.43
2023-11-13T07:42:27.185Z,16.53
2023-11-13T07:44:56.496Z,16.54
2023-11-13T07:47:27.845Z,16.70
2023-11-13T07:49:58.877Z,16.84
2023-11-13T07:52:28.783Z,16.89
2023-11-13T07:54:59.880Z,17.02
2023-11-13T07:57:26.542Z,17.27
2023-11-13T07:59:54.723Z,17.25
2023-11-13T08:02:21.648Z,17.28
2023-11-13T08:04:48.415Z,17.27
2023-11-13T08:07:23.394Z,17.42
2023-11-13T08:09:52.641Z,17.58
2023-11-13T08:12:19.969Z,17.53
2023-11-13T08:14:48.093Z,17.44
2023-11-13T08:17:15.073Z,17.41
2023-11-13T08:19:43.009Z,17.37
2023-11-13T08:22:09.736Z,17.46
2023-11-13T08:24:36.537Z,17.43
2023-11-13T08:27:05.084Z,17.58
2023-11-13T08:29:34.053Z,17.51
2023-11-13T08:32:01.775Z,17.53
2023-11-13T08:34:28.643Z,17.60
2023-11-13T08:36:55.251Z,17.65
2023-11-13T08:39:23.602Z,17.68
2023-11-13T08:41:50.100Z,17.70
2023-11-13T08:44:16.664Z,17.73
2023-11-13T08:46:43.270Z,17.78
2023-11-13T08:49:10.141Z,17.78
2023-11-13T08:51:39.475Z,17.70
2023-11-13T08:54:06.188Z,17.68
2023-11-13T08:56:32.831Z,17.73
2023-11-13T08:59:00.283Z,17.88
2023-11-13T09:01:28.944Z,17.86
2023-11-13T09:03:56.194Z,17.78
2023-11-13T09:06:23.429Z,17.88
2023-11-13T09:08:54.858Z,17.94
2023-11-13T09:11:27.563Z,18.11
2023-11-13T09:13:54.189Z,18.20
2023-11-13T09:16:21.955Z,18.31
2023-11-13T09:18:56.152Z,18.33
2023-11-13T09:21:22.684Z,18.41
2023-11-13T09:23:49.199Z,18.27
2023-11-13T09:26:16.508Z,18.30
2023-11-13T09:28:43.146Z,18.34
2023-11-13T09:31:11.858Z,18.36
2023-11-13T09:33:41.201Z,18.46
2023-11-13T09:36:08.667Z,18.56
2023-11-13T09:38:35.539Z,18.62
2023-11-13T09:41:05.148Z,18.59
2023-11-13T09:43:36.138Z,18.74
2023-11-13T09:46:09.598Z,18.85
2023-11-13T09:48:46.579Z,18.91
2023-11-13T09:51:27.819Z,19.07
2023-11-13T09:53:58.972Z,19.09
2023-11-13T09:56:28.866Z,18.96
2023-11-13T09:58:58.091Z,18.84
2023-11-13T10:01:24.701Z,18.84
2023-11-13T10:03:51.851Z,18.84
2023-11-13T10:06:20.600Z,18.88
2023-11-13T10:08:48.548Z,18.99
2023-11-13T10:11:15.576Z,19.02
2023-11-13T10:13:42.739Z,19.18
2023-11-13T10:16:18.226Z,19.47
2023-11-13T10:18:45.221Z,19.63
2023-11-13T10:21:21.496Z,19.74
2023-11-13T10:23:50.285Z,19.82
2023-11-13T10:26:26.837Z,19.94
2023-11-13T10:28:53.554Z,19.96
2023-11-13T10:31:25.048Z,19.94
2023-11-13T10:34:04.260Z,20.14
2023-11-13T10:36:33.916Z,20.35
2023-11-13T10:39:00.911Z,20.51
2023-11-13T10:41:35.115Z,20.57
2023-11-13T10:44:23.716Z,20.76
2023-11-13T10:46:50.940Z,20.62
2023-11-13T10:49:19.280Z,20.67
2023-11-13T10:51:50.599Z,20.70
2023-11-13T10:54:19.103Z,20.91
2023-11-13T10:56:50.385Z,20.86
2023-11-13T10:59:17.203Z,20.67
2023-11-13T11:01:47.109Z,20.57
2023-11-13T11:04:17.712Z,20.63
2023-11-13T11:06:46.514Z,20.52
2023-11-13T11:09:19.137Z,20.56
2023-11-13T11:11:47.660Z,20.33
2023-11-13T11:14:21.940Z,20.30
2023-11-13T11:16:55.470Z,20.16
2023-11-13T11:19:30.470Z,20.19
2023-11-13T11:22:01.880Z,20.12
2023-11-13T11:24:59.547Z,20.16
2023-11-13T11:27:43.878Z,20.09
2023-11-13T11:30:19.531Z,20.09
2023-11-13T11:32:56.572Z,20.00
2023-11-13T11:35:24.777Z,19.93
2023-11-13T11:38:23.726Z,19.85
2023-11-13T11:40:51.531Z,19.76
2023-11-13T11:43:23.261Z,19.76
2023-11-13T11:45:55.596Z,19.63
2023-11-13T11:48:25.682Z,19.70
2023-11-13T11:51:04.541Z,19.67
2023-11-13T11:53:31.150Z,19.71
2023-11-13T11:55:59.675Z,19.66
2023-11-13T11:58:26.370Z,19.58
2023-11-13T12:00:52.978Z,19.57
2023-11-13T12:03:20.310Z,19.48
2023-11-13T12:05:48.351Z,19.44
2023-11-13T12:08:15.168Z,19.50
2023-11-13T12:10:43.738Z,19.43
2023-11-13T12:13:10.475Z,19.43
2023-11-13T12:15:37.296Z,19.30
2023-11-13T12:18:04.126Z,19.27
2023-11-13T12:20:32.103Z,19.29
2023-11-13T12:22:58.950Z,19.37
2023-11-13T12:25:25.694Z,19.30
2023-11-13T12:27:55.567Z,19.32
2023-11-13T12:30:22.978Z,19.45
2023-11-13T12:32:52.917Z,19.57
2023-11-13T12:35:21.775Z,19.54
2023-11-13T12:37:50.011Z,19.57
2023-11-13T12:40:18.161Z,19.39
2023-11-13T12:42:45.213Z,19.66
2023-11-13T12:45:13.956Z,19.66
2023-11-13T12:48:01.412Z,19.81
2023-11-13T12:50:28.043Z,20.14
2023-11-13T12:52:56.283Z,20.00
2023-11-13T12:55:24.012Z,20.00
2023-11-13T12:57:51.835Z,20.09
2023-11-13T13:00:21.036Z,19.94
2023-11-13T13:02:50.967Z,20.03
2023-11-13T13:05:29.924Z,20.14
2023-11-13T13:08:00.220Z,20.14
2023-11-13T13:10:27.116Z,20.05
2023-11-13T13:12:55.075Z,20.16
2023-11-13T13:15:22.507Z,20.08
2023-11-13T13:17:53.220Z,20.06
2023-11-13T13:20:31.747Z,19.99
2023-11-13T13:23:00.231Z,20.08
2023-11-13T13:25:31.938Z,20.00
2023-11-13T13:27:59.484Z,19.91
2023-11-13T13:30:31.260Z,20.05
2023-11-13T13:32:58.010Z,20.10
2023-11-13T13:35:24.577Z,20.13
2023-11-13T13:37:51.071Z,20.23
2023-11-13T13:40:18.449Z,20.19
2023-11-13T13:42:46.211Z,20.14
2023-11-13T13:45:19.543Z,20.28
2023-11-13T13:47:50.270Z,20.32
2023-11-13T13:50:21.990Z,20.30
2023-11-13T13:52:52.711Z,20.27
2023-11-13T13:55:22.326Z,20.25
2023-11-13T13:57:51.334Z,20.31
2023-11-13T14:00:36.426Z,20.27
2023-11-13T14:03:11.558Z,20.20
2023-11-13T14:05:42.428Z,20.27
2023-11-13T14:08:13.166Z,20.14
2023-11-13T14:10:40.718Z,20.23
2023-11-13T14:13:07.374Z,20.30
2023-11-13T14:15:34.197Z,20.28
2023-11-13T14:18:01.256Z,20.24
2023-11-13T14:20:28.324Z,20.26
2023-11-13T14:22:59.890Z,20.20
2023-11-13T14:25:28.127Z,20.23
2023-11-13T14:27:55.464Z,20.36
2023-11-13T14:30:27.922Z,20.38
2023-11-13T14:32:55.386Z,20.42
2023-11-13T14:35:24.641Z,20.36
2023-11-13T14:37:54.238Z,20.27
2023-11-13T14:40:24.908Z,20.08
2023-11-13T14:42:51.559Z,20.16
2023-11-13T14:45:21.165Z,20.23
2023-11-13T14:47:49.562Z,20.20
2023-11-13T14:50:20.813Z,20.18
2023-11-13T14:52:54.571Z,20.25
2023-11-13T14:55:23.383Z,20.25
2023-11-13T14:57:51.874Z,20.10
2023-11-13T15:00:21.574Z,20.10
2023-11-13T15:02:50.516Z,20.16
2023-11-13T15:05:17.567Z,20.06
2023-11-13T15:07:44.894Z,20.10
2023-11-13T15:10:14.057Z,19.99
2023-11-13T15:12:41.513Z,20.01
2023-11-13T15:15:16.557Z,19.97
2023-11-13T15:17:46.157Z,20.05
2023-11-13T15:20:16.089Z,20.13
2023-11-13T15:25:15.361Z,20.05
2023-11-13T15:27:41.940Z,20.22
2023-11-13T15:30:10.752Z,20.27
2023-11-13T15:32:37.954Z,20.18
2023-11-13T15:35:06.701Z,20.09
2023-11-13T15:37:33.475Z,20.11
2023-11-13T15:40:00.077Z,20.10
2023-11-13T15:42:26.685Z,20.14
2023-11-13T15:44:53.242Z,20.23
2023-11-13T15:47:19.741Z,20.12
2023-11-13T15:49:46.301Z,20.26
2023-11-13T15:52:13.106Z,20.18
2023-11-13T15:54:39.843Z,20.22
2023-11-13T15:57:07.049Z,20.19
2023-11-13T15:59:33.860Z,20.20
2023-11-13T16:02:04.388Z,20.10
2023-11-13T16:04:32.227Z,20.10
2023-11-13T16:07:04.195Z,20.27
2023-11-13T16:09:30.741Z,20.25
2023-11-13T16:11:58.303Z,20.41
2023-11-13T16:14:24.818Z,20.36
2023-11-13T16:16:51.445Z,20.35
2023-11-13T16:19:18.116Z,20.29
2023-11-13T16:21:45.624Z,20.45
2023-11-13T16:24:12.399Z,20.55
2023-11-13T16:26:38.964Z,20.73
2023-11-13T16:29:09.723Z,20.75
2023-11-13T16:31:36.932Z,20.58
2023-11-13T16:34:05.654Z,20.51
2023-11-13T16:36:33.882Z,20.32
2023-11-13T16:39:01.635Z,20.10
2023-11-13T16:41:28.153Z,19.94
2023-11-13T16:43:54.699Z,20.20
2023-11-13T16:46:22.484Z,20.31
2023-11-13T16:48:49.477Z,20.25
2023-11-13T16:51:16.875Z,20.23
2023-11-13T16:53:44.669Z,20.01
2023-11-13T16:56:11.229Z,19.87
2023-11-13T16:58:37.799Z,19.92
2023-11-13T17:01:08.096Z,19.96
2023-11-13T17:03:37.535Z,20.02
2023-11-13T17:06:07.224Z,19.81
2023-11-13T17:08:33.989Z,20.12
2023-11-13T17:11:00.561Z,20.11
2023-11-13T17:13:27.185Z,20.04
2023-11-13T17:15:53.814Z,20.14
2023-11-13T17:18:20.406Z,20.36
2023-11-13T17:20:47.074Z,20.18
2023-11-13T17:23:13.829Z,20.21
2023-11-13T17:25:40.377Z,19.92
2023-11-13T17:28:06.935Z,20.03
2023-11-13T17:30:34.032Z,19.88
2023-11-13T17:33:00.702Z,19.78
2023-11-13T17:35:28.131Z,19.79
2023-11-13T17:37:54.797Z,19.79
2023-11-13T17:40:22.729Z,19.96
2023-11-13T17:42:49.414Z,19.87
2023-11-13T17:45:16.008Z,19.78
2023-11-13T17:47:42.633Z,19.93
2023-11-13T17:50:10.789Z,19.98
2023-11-13T17:52:40.948Z,19.85
2023-11-13T17:55:12.200Z,19.97
2023-11-13T17:57:39.407Z,20.05
2023-11-13T18:00:14.114Z,19.96
2023-11-13T18:02:46.017Z,20.05
2023-11-13T18:05:12.818Z,19.90
2023-11-13T18:07:40.774Z,20.08
2023-11-13T18:10:09.081Z,19.99
2023-11-13T18:12:35.695Z,19.83
2023-11-13T18:15:04.468Z,19.89
2023-11-13T18:17:32.332Z,19.93
2023-11-13T18:19:59.505Z,19.87
2023-11-13T18:22:26.186Z,19.98
2023-11-13T18:24:52.735Z,20.07
2023-11-13T18:27:19.279Z,20.09
2023-11-13T18:29:45.778Z,20.10
2023-11-13T18:32:12.428Z,20.02
2023-11-13T18:34:38.997Z,19.99
2023-11-13T18:37:06.566Z,20.01
2023-11-13T18:39:34.919Z,20.25
2023-11-13T18:42:03.765Z,20.37
2023-11-13T18:44:30.340Z,20.30
2023-11-13T18:46:57.438Z,20.37
2023-11-13T18:49:24.528Z,20.44
2023-11-13T18:51:51.075Z,20.61
2023-11-13T18:54:17.705Z,20.44
2023-11-13T18:56:44.325Z,20.47
2023-11-13T18:59:11.050Z,20.41
2023-11-13T19:01:39.261Z,20.52
2023-11-13T19:04:07.116Z,20.49
2023-11-13T19:06:40.243Z,20.49
2023-11-13T19:09:06.731Z,20.56
2023-11-13T19:11:33.211Z,20.68
2023-11-13T19:14:02.326Z,20.57
2023-11-13T19:16:29.232Z,20.33
2023-11-13T19:18:56.003Z,20.56
2023-11-13T19:21:26.762Z,20.73
2023-11-13T19:23:55.544Z,20.60
2023-11-13T19:26:22.941Z,20.82
2023-11-13T19:28:50.276Z,20.67
2023-11-13T19:31:17.625Z,20.63
2023-11-13T19:33:44.507Z,20.79
2023-11-13T19:36:11.993Z,20.73
2023-11-13T19:38:38.598Z,20.69
2023-11-13T19:41:06.769Z,20.79
2023-11-13T19:43:34.671Z,20.98
2023-11-13T19:46:01.207Z,21.04
2023-11-13T19:48:29.837Z,20.80
2023-11-13T19:50:56.891Z,20.89
2023-11-13T19:53:23.785Z,21.18
2023-11-13T19:55:50.414Z,21.21
2023-11-13T19:58:17.016Z,21.08
2023-11-13T20:00:43.961Z,21.10
2023-11-13T20:03:10.666Z,21.11
2023-11-13T20:05:37.445Z,20.94
2023-11-13T20:08:05.624Z,21.13
2023-11-13T20:10:32.937Z,21.31
2023-11-13T20:12:59.547Z,21.14
2023-11-13T20:15:26.200Z,21.23
2023-11-13T20:17:53.348Z,21.22
2023-11-13T20:20:20.178Z,21.04
2023-11-13T20:22:47.344Z,21.16
2023-11-13T20:25:14.318Z,21.30
2023-11-13T20:27:40.897Z,21.28
2023-11-13T20:30:07.973Z,21.51
2023-11-13T20:32:35.032Z,21.50
2023-11-13T20:35:02.272Z,21.45
2023-11-13T20:37:29.224Z,21.41
2023-11-13T20:39:56.053Z,21.32
2023-11-13T20:42:22.794Z,21.18
2023-11-13T20:44:49.484Z,21.30
2023-11-13T20:47:16.155Z,21.25
2023-11-13T20:49:42.895Z,21.14
2023-11-13T20:52:10.735Z,21.29
2023-11-13T20:54:37.336Z,21.45
2023-11-13T20:57:04.750Z,21.17
2023-11-13T20:59:33.150Z,21.11
2023-11-13T21:02:02.711Z,21.13
2023-11-13T21:04:30.171Z,21.18
2023-11-13T21:06:56.941Z,21.43
2023-11-13T21:09:23.508Z,21.47
2023-11-13T21:11:51.056Z,21.52
2023-11-13T21:14:17.923Z,21.46
2023-11-13T21:16:44.859Z,21.37
2023-11-13T21:19:11.583Z,21.48
2023-11-13T21:21:38.093Z,21.33
2023-11-13T21:24:09.481Z,21.57
2023-11-13T21:26:36.697Z,21.56
2023-11-13T21:29:04.911Z,21.37
2023-11-13T21:31:31.893Z,21.50
2023-11-13T21:33:59.614Z,21.57
2023-11-13T21:36:26.789Z,21.50
2023-11-13T21:38:54.531Z,21.54
2023-11-13T21:41:21.558Z,21.60
2023-11-13T21:43:51.096Z,21.50
2023-11-13T21:46:17.990Z,21.47
2023-11-13T21:48:44.671Z,21.38
2023-11-13T21:51:11.353Z,21.42
2023-11-13T21:53:38.620Z,21.27
2023-11-13T21:56:08.552Z,21.34
2023-11-13T21:58:35.221Z,21.23
2023-11-13T22:01:02.213Z,21.27
2023-11-13T22:03:29.559Z,21.42
2023-11-13T22:05:58.417Z,21.27
2023-11-13T22:08:25.248Z,21.20
2023-11-13T22:10:53.373Z,21.44
2023-11-13T22:13:20.270Z,21.45
2023-11-13T22:15:46.850Z,21.25
2023-11-13T22:18:13.418Z,21.30
2023-11-13T22:20:39.959Z,21.20
2023-11-13T22:23:09.191Z,21.34
2023-11-13T22:25:36.208Z,21.20
2023-11-13T22:28:03.260Z,21.15
2023-11-13T22:30:29.979Z,21.01
2023-11-13T22:32:57.882Z,21.11
2023-11-13T22:35:24.972Z,20.79
2023-11-13T22:37:52.508Z,20.92
2023-11-13T22:40:19.283Z,20.79
2023-11-13T22:42:45.870Z,20.94
2023-11-13T22:45:12.622Z,20.88
2023-11-13T22:47:39.199Z,21.09
2023-11-13T22:50:09.160Z,20.88
2023-11-13T22:52:36.464Z,20.85
2023-11-13T22:55:02.987Z,20.90
2023-11-13T22:57:30.259Z,20.93
2023-11-13T22:59:56.982Z,20.96
2023-11-13T23:02:23.852Z,20.95
2023-11-13T23:04:52.325Z,20.96
2023-11-13T23:07:19.207Z,20.84
2023-11-13T23:09:46.614Z,20.92
2023-11-13T23:12:13.516Z,20.93
2023-11-13T23:14:40.345Z,20.96
2023-11-13T23:17:07.128Z,21.08
2023-11-13T23:19:34.268Z,21.05
2023-11-13T23:22:04.568Z,21.01
2023-11-13T23:24:32.732Z,20.97
2023-11-13T23:27:00.968Z,20.97
2023-11-13T23:29:28.438Z,20.85
2023-11-13T23:31:55.626Z,21.11
2023-11-13T23:34:22.429Z,21.09
2023-11-13T23:36:49.739Z,21.02
2023-11-13T23:39:17.199Z,21.11
2023-11-13T23:41:43.791Z,20.92
2023-11-13T23:44:11.962Z,20.73
2023-11-13T23:46:39.996Z,20.69
2023-11-13T23:49:07.291Z,20.58
2023-11-13T23:51:34.008Z,20.64
2023-11-13T23:54:01.435Z,20.60
2023-11-13T23:56:28.638Z,20.66
2023-11-13T23:58:57.449Z,20.57
